Time;durP1;ratioP1;P1;durP2;ratioP2;P2;SDS_P1;SDS_P2;PMS_P1;PMS_P2;Temp;Humidity;BMP_temperature;BMP_pressure;BME280_temperature;BME280_humidity;BME280_pressure;Samples;Min_cycle;Max_cycle;Signal;HPM_P1;HPM_P2
2021/09/30 05:02:47;;;;;;;1119.10;70.00;;;;;;;12.32;93.13;95584.22;5029935;23;20459;-86
2021/09/30 05:05:14;;;;;;;34.35;13.63;;;;;;;12.26;93.24;95577.09;4934829;29;20062;-87
2021/09/30 05:07:39;;;;;;;15.43;13.90;;;;;;;12.29;93.34;95575.00;4938819;28;20069;-86
2021/09/30 05:10:06;;;;;;;53.28;16.73;;;;;;;12.18;93.39;95561.53;4970638;28;20035;-87
2021/09/30 05:12:32;;;;;;;15.15;13.95;;;;;;;11.98;93.83;95535.91;4970015;28;20085;-85
2021/09/30 05:14:57;;;;;;;15.70;14.40;;;;;;;12.18;93.57;95564.13;4970682;28;20470;-83
2021/09/30 05:17:23;;;;;;;16.55;14.57;;;;;;;12.34;93.66;95575.28;4967976;28;20038;-83
2021/09/30 05:19:48;;;;;;;16.52;15.13;;;;;;;12.36;93.91;95581.13;4954187;28;20039;-84
2021/09/30 05:22:14;;;;;;;45.90;15.68;;;;;;;12.43;93.50;95596.84;4953107;28;20034;-85
2021/09/30 05:24:39;;;;;;;158.68;18.88;;;;;;;12.33;92.80;95575.47;4971449;28;20031;-83
2021/09/30 05:27:05;;;;;;;36.80;14.25;;;;;;;12.41;92.76;95568.47;4953664;28;20023;-86
2021/09/30 05:29:30;;;;;;;15.50;14.10;;;;;;;12.72;92.34;95596.28;4937695;28;20034;-87
2021/09/30 05:31:56;;;;;;;1398.35;79.25;;;;;;;12.65;91.64;95593.53;4970853;28;20078;-87
2021/09/30 05:34:21;;;;;;;32.10;13.30;;;;;;;12.71;91.99;95589.50;4970647;28;20289;-89
2021/09/30 05:36:47;;;;;;;320.38;26.67;;;;;;;12.82;91.07;95594.31;4970457;28;20034;-89
2021/09/30 05:39:12;;;;;;;13.50;12.57;;;;;;;13.02;90.67;95598.13;4970468;28;20492;-87
2021/09/30 05:41:37;;;;;;;14.65;12.65;;;;;;;13.00;90.09;95593.09;4971540;28;20093;-87
2021/09/30 05:44:09;;;;;;;393.55;30.40;;;;;;;13.09;89.00;95586.91;4968872;28;20038;-88
2021/09/30 05:46:43;;;;;;;13.75;12.43;;;;;;;13.10;89.11;95578.13;4970922;28;20392;-84
2021/09/30 05:49:10;;;;;;;386.85;30.50;;;;;;;13.02;88.45;95574.72;4956277;28;20484;-87
2021/09/30 05:51:36;;;;;;;49.20;11.63;;;;;;;13.25;88.43;95596.44;4953079;28;20027;-86
2021/09/30 05:54:02;;;;;;;247.82;24.92;;;;;;;13.22;87.47;95582.94;4987144;28;20022;-82
2021/09/30 05:56:28;;;;;;;1368.07;111.97;;;;;;;13.36;86.80;95592.59;4968833;28;20532;-84
2021/09/30 05:58:54;;;;;;;199.60;19.20;;;;;;;13.18;87.41;95583.28;4971093;28;20459;-88
2021/09/30 06:11:57;;;;;;;551.92;38.63;;;;;;;13.17;87.29;95596.44;4969482;28;20031;-83
2021/09/30 06:14:25;;;;;;;9.75;8.88;;;;;;;13.18;86.44;95598.09;4967188;28;20125;-80
2021/09/30 06:16:51;;;;;;;72.10;11.65;;;;;;;13.06;86.58;95587.22;4952676;28;20026;-80
2021/09/30 06:19:20;;;;;;;575.08;31.88;;;;;;;13.11;84.23;95610.13;4968281;28;20026;-84
2021/09/30 06:21:52;;;;;;;291.38;19.38;;;;;;;13.15;84.30;95594.03;4967789;28;20030;-83
2021/09/30 06:24:21;;;;;;;11.40;7.30;;;;;;;13.14;83.64;95579.41;4984535;28;20519;-81
2021/09/30 06:26:47;;;;;;;1123.05;51.70;;;;;;;13.27;81.66;95619.66;4967143;28;20034;-82
2021/09/30 06:29:13;;;;;;;6.63;5.43;;;;;;;13.42;80.99;95615.38;4967808;28;20089;-86
2021/09/30 06:31:38;;;;;;;6.57;5.82;;;;;;;13.50;81.84;95608.31;4966943;28;20034;-83
2021/09/30 06:34:04;;;;;;;278.20;18.60;;;;;;;13.28;82.13;95624.69;4967972;28;20460;-80
2021/09/30 06:36:29;;;;;;;131.75;14.63;;;;;;;13.59;81.57;95616.88;4951292;28;20030;-83
2021/09/30 06:38:55;;;;;;;19.10;6.18;;;;;;;13.55;81.38;95620.81;4950904;28;20030;-82
2021/09/30 06:41:20;;;;;;;774.67;59.78;;;;;;;13.63;80.17;95625.97;4967654;28;20027;-77
2021/09/30 06:43:46;;;;;;;5.95;5.03;;;;;;;13.68;79.00;95616.63;4967644;28;20035;-81
2021/09/30 06:46:11;;;;;;;64.65;8.38;;;;;;;13.71;79.06;95623.28;4986133;28;20089;-82
2021/09/30 06:48:36;;;;;;;100.97;10.02;;;;;;;13.73;79.40;95622.16;4967154;28;20025;-81
2021/09/30 06:51:02;;;;;;;1873.63;127.47;;;;;;;13.61;78.48;95626.13;4969552;28;20027;-81
2021/09/30 12:17:31;;;;;;;8.05;5.00;;;;;;;15.94;69.98;95566.34;4957883;28;20149;-86
2021/09/30 12:19:56;;;;;;;775.72;41.70;;;;;;;16.07;69.41;95574.28;4970102;28;20049;-86
2021/09/30 12:22:28;;;;;;;6.25;4.57;;;;;;;15.99;69.48;95563.94;4971315;28;20416;-87
2021/09/30 12:24:58;;;;;;;708.00;31.75;;;;;;;16.04;69.21;95560.78;4971362;28;20031;-89
2021/09/30 12:27:25;;;;;;;1142.38;55.10;;;;;;;16.03;68.39;95577.44;4971689;28;20035;-88
2021/09/30 12:29:52;;;;;;;374.80;20.08;;;;;;;16.06;69.70;95570.03;4970292;28;20031;-89
2021/09/30 12:32:27;;;;;;;27.75;5.63;;;;;;;16.06;69.39;95564.00;4955102;28;20034;-88
2021/09/30 12:35:00;;;;;;;4.90;4.40;;;;;;;16.13;69.10;95562.25;4969488;28;20027;-86
2021/09/30 12:37:30;;;;;;;40.13;6.47;;;;;;;16.11;69.02;95562.47;4972571;28;20027;-87
2021/09/30 12:40:08;;;;;;;141.40;8.88;;;;;;;16.08;68.92;95557.63;4970627;28;20496;-88
2021/09/30 12:42:33;;;;;;;7.68;4.85;;;;;;;16.04;68.93;95564.22;4969375;28;20053;-90
2021/09/30 12:44:59;;;;;;;113.90;9.95;;;;;;;15.95;68.91;95552.28;4972003;28;20492;-87
2021/09/30 12:47:38;;;;;;;651.47;31.83;;;;;;;16.03;68.90;95565.19;4985735;28;20027;-83
2021/09/30 12:50:15;;;;;;;157.27;11.43;;;;;;;16.01;69.50;95564.59;4972513;28;20026;-87
2021/09/30 12:52:41;;;;;;;315.27;21.42;;;;;;;15.67;70.88;95565.28;4985461;28;20027;-90
2021/09/30 12:55:15;;;;;;;530.40;28.45;;;;;;;15.64;71.81;95568.25;4987130;28;20039;-87
2021/09/30 12:57:41;;;;;;;49.17;6.95;;;;;;;15.54;72.46;95557.31;4971988;28;20027;-88
2021/09/30 13:00:09;;;;;;;7.93;5.80;;;;;;;15.58;73.07;95571.63;4969058;28;20170;-94
2021/09/30 13:02:35;;;;;;;424.55;23.73;;;;;;;15.12;73.03;95518.91;4971328;28;20042;-91
2021/09/30 13:05:00;;;;;;;80.80;8.20;;;;;;;15.39;73.04;95559.16;4969384;28;20051;-92
2021/09/30 13:07:52;;;;;;;12.82;6.07;;;;;;;15.51;73.26;95564.75;4971625;28;20031;-87
2021/09/30 13:10:18;;;;;;;72.55;8.85;;;;;;;15.29;73.04;95556.03;4970471;28;20078;-92
2021/09/30 13:13:01;;;;;;;6.22;5.47;;;;;;;15.32;73.31;95572.13;4953935;28;20019;-91
2021/09/30 13:15:43;;;;;;;241.35;14.68;;;;;;;15.35;72.66;95560.50;4972419;28;20058;-95
2021/09/30 13:18:10;;;;;;;200.27;15.35;;;;;;;15.34;72.36;95558.91;4985285;28;20085;-93
2021/09/30 13:20:36;;;;;;;138.88;10.02;;;;;;;15.29;72.49;95567.28;4970483;28;20039;-93
2021/09/30 13:23:01;;;;;;;317.35;18.65;;;;;;;15.18;72.86;95570.38;4953157;28;20120;-93
2021/09/30 13:25:27;;;;;;;28.83;6.82;;;;;;;15.19;72.69;95558.94;4971731;28;20035;-89
2021/09/30 13:27:52;;;;;;;336.25;20.88;;;;;;;15.31;73.31;95561.88;4986558;28;20066;-90
2021/09/30 13:30:20;;;;;;;6.43;5.38;;;;;;;15.27;73.38;95558.03;4968390;28;20118;-92
2021/09/30 13:32:45;;;;;;;6.43;5.63;;;;;;;15.19;73.74;95551.09;4970766;28;20048;-94
2021/09/30 13:35:11;;;;;;;27.88;6.10;;;;;;;15.16;73.10;95542.81;4968378;28;20484;-94
2021/09/30 13:37:37;;;;;;;12.25;6.28;;;;;;;15.37;73.62;95555.94;4954293;28;20026;-95
2021/09/30 13:40:04;;;;;;;6.63;5.93;;;;;;;15.28;73.55;95552.59;4952218;28;20035;-90
2021/09/30 13:42:31;;;;;;;405.63;24.08;;;;;;;15.09;73.97;95527.09;4970371;28;20086;-82
2021/09/30 13:44:57;;;;;;;112.30;11.50;;;;;;;15.18;74.05;95546.91;4969302;28;20038;-88
2021/09/30 13:47:24;;;;;;;549.55;33.42;;;;;;;15.11;74.34;95551.22;4985619;28;20419;-89
2021/09/30 13:49:49;;;;;;;1011.08;59.03;;;;;;;14.70;74.52;95522.22;4986194;28;20027;-92
2021/09/30 13:52:15;;;;;;;354.85;20.15;;;;;;;14.80;74.64;95513.34;4968209;28;20039;-92
2021/09/30 13:54:41;;;;;;;8.20;5.60;;;;;;;14.71;74.42;95478.72;4970290;28;20034;-93
2021/09/30 13:57:06;;;;;;;1999.90;166.30;;;;;;;14.86;74.23;95533.47;4952211;28;20027;-91
2021/09/30 13:59:32;;;;;;;1290.53;70.85;;;;;;;14.88;74.36;95541.91;4953497;28;20428;-93
2021/09/30 14:01:57;;;;;;;70.90;8.75;;;;;;;14.89;74.69;95544.34;4967199;28;20093;-92
2021/09/30 14:04:23;;;;;;;10.07;5.30;;;;;;;14.97;75.24;95551.25;4985829;28;20042;-93
2021/09/30 14:06:49;;;;;;;1066.80;59.50;;;;;;;14.67;74.71;95514.75;4969873;28;20030;-90
2021/09/30 14:09:14;;;;;;;6.03;5.53;;;;;;;14.81;75.49;95547.03;4968612;28;20038;-94
2021/09/30 14:11:40;;;;;;;1295.35;78.70;;;;;;;14.72;75.68;95532.47;4970467;28;20030;-91
2021/09/30 14:14:05;;;;;;;90.05;8.88;;;;;;;15.00;75.52;95562.13;4969396;28;20027;-91
2021/09/30 14:19:52;;;;;;;38.65;7.13;;;;;;;14.73;76.20;95532.31;4956851;28;20539;-92
2021/09/30 14:22:18;;;;;;;6.25;5.57;;;;;;;14.91;75.79;95559.78;4967517;28;20039;-93
2021/09/30 14:24:43;;;;;;;7.13;6.20;;;;;;;14.59;76.14;95519.28;4968142;28;20038;-95
2021/09/30 14:27:09;;;;;;;236.05;16.13;;;;;;;14.82;76.51;95553.88;4946506;29;20045;-93
2021/09/30 14:29:41;;;;;;;8.25;6.20;;;;;;;14.75;77.04;95540.75;4951445;29;20031;-94
2021/09/30 14:32:07;;;;;;;6.80;6.10;;;;;;;14.71;77.45;95552.53;4949120;28;20034;-91
2021/09/30 14:34:33;;;;;;;7.50;6.82;;;;;;;14.60;76.82;95523.50;4966518;28;20567;-94
2021/09/30 14:36:58;;;;;;;8.38;6.05;;;;;;;14.69;76.91;95551.91;4950486;28;20023;-93
2021/09/30 14:39:24;;;;;;;10.15;7.70;;;;;;;14.65;77.04;95542.81;4965543;28;20067;-92
2021/09/30 14:41:49;;;;;;;8.50;7.43;;;;;;;14.64;77.30;95554.25;4969653;28;20031;-94
2021/09/30 14:44:15;;;;;;;9.52;8.07;;;;;;;14.68;77.75;95549.47;4951890;28;20447;-90
2021/09/30 14:46:40;;;;;;;8.45;6.93;;;;;;;14.52;78.65;95555.69;4953782;28;20023;-90
2021/09/30 14:49:06;;;;;;;8.85;7.05;;;;;;;14.58;78.48;95551.53;4967455;28;20035;-96
2021/09/30 14:51:31;;;;;;;7.10;6.50;;;;;;;14.49;79.27;95540.41;4969779;28;20019;-90
2021/09/30 14:53:56;;;;;;;7.97;7.35;;;;;;;14.45;79.72;95528.72;4968500;28;20031;-91
2021/09/30 14:56:22;;;;;;;9.57;6.90;;;;;;;14.27;80.06;95536.06;4952457;28;20031;-94
2021/09/30 14:58:47;;;;;;;7.50;6.90;;;;;;;14.47;80.17;95547.59;4953600;28;20041;-91
2021/09/30 15:01:14;;;;;;;8.82;7.35;;;;;;;14.42;80.02;95536.91;4952219;28;20026;-93
2021/09/30 15:07:01;;;;;;;8.48;7.82;;;;;;;14.52;81.02;95552.25;4969590;28;20092;-92
2021/09/30 15:09:26;;;;;;;11.70;7.90;;;;;;;14.15;81.11;95508.84;4969260;28;20484;-92
2021/09/30 15:11:52;;;;;;;7.75;6.80;;;;;;;14.18;81.13;95542.34;4969017;28;20027;-92
2021/09/30 15:14:18;;;;;;;6.95;6.32;;;;;;;14.22;81.34;95547.00;4967407;28;20066;-93
